sensor_id;sensor_type;location;lat;lon;timestamp;pressure;altitude;pressure_sealevel;temperature;humidity
70458;BME280;57919;56.194;95.716;2023-01-27T00:08:00;99193.16;;;-3.23;55.39
70458;BME280;57919;56.194;95.716;2023-01-27T00:18:02;99188.69;;;-3.21;55.17
70458;BME280;57919;56.194;95.716;2023-01-27T00:28:04;99157.97;;;-3.25;55.11
70458;BME280;57919;56.194;95.716;2023-01-27T00:38:06;99155.72;;;-3.11;54.48
70458;BME280;57919;56.194;95.716;2023-01-27T00:48:08;99146.66;;;-3.04;54.04
70458;BME280;57919;56.194;95.716;2023-01-27T00:58:10;99145.84;;;-3.06;55.33
70458;BME280;57919;56.194;95.716;2023-01-27T01:08:12;99112.13;;;-3.26;56.17
70458;BME280;57919;56.194;95.716;2023-01-27T01:18:15;99152.91;;;-3.06;54.87
70458;BME280;57919;56.194;95.716;2023-01-27T01:28:17;99144.06;;;-3.05;54.17
70458;BME280;57919;56.194;95.716;2023-01-27T01:38:19;99107.03;;;-3.05;53.52
70458;BME280;57919;56.194;95.716;2023-01-27T01:58:33;99084.19;;;-3.08;55.13
70458;BME280;57919;56.194;95.716;2023-01-27T02:08:38;99102.38;;;-2.99;53.17
70458;BME280;57919;56.194;95.716;2023-01-27T02:18:41;99070.03;;;-3.07;53.69
70458;BME280;57919;56.194;95.716;2023-01-27T02:28:44;99078.94;;;-2.84;52.23
70458;BME280;57919;56.194;95.716;2023-01-27T02:38:53;99044.16;;;-2.99;52.26
70458;BME280;57919;56.194;95.716;2023-01-27T02:48:56;99030.59;;;-2.66;52.30
70458;BME280;57919;56.194;95.716;2023-01-27T02:58:58;99057.63;;;-2.35;54.55
70458;BME280;57919;56.194;95.716;2023-01-27T03:09:07;99033.06;;;-2.38;51.29
70458;BME280;57919;56.194;95.716;2023-01-27T03:19:09;99039.44;;;-2.44;51.01
70458;BME280;57919;56.194;95.716;2023-01-27T03:29:11;99028.56;;;-2.36;50.96
70458;BME280;57919;56.194;95.716;2023-01-27T03:39:32;99002.56;;;-2.26;50.19
70458;BME280;57919;56.194;95.716;2023-01-27T03:49:53;99002.69;;;-2.30;50.26
70458;BME280;57919;56.194;95.716;2023-01-27T03:59:55;98963.81;;;-2.29;50.04
70458;BME280;57919;56.194;95.716;2023-01-27T04:09:58;98963.69;;;-2.04;50.08
70458;BME280;57919;56.194;95.716;2023-01-27T04:20:00;98926.78;;;-2.09;49.14
70458;BME280;57919;56.194;95.716;2023-01-27T04:30:02;98953.84;;;-1.80;48.68
70458;BME280;57919;56.194;95.716;2023-01-27T04:40:06;98899.41;;;-1.89;48.19
70458;BME280;57919;56.194;95.716;2023-01-27T04:50:09;98910.38;;;-1.37;49.84
70458;BME280;57919;56.194;95.716;2023-01-27T05:00:12;98918.31;;;-1.17;48.16
70458;BME280;57919;56.194;95.716;2023-01-27T05:10:14;98879.78;;;-1.25;47.56
70458;BME280;57919;56.194;95.716;2023-01-27T05:20:16;98894.06;;;-1.09;47.69
70458;BME280;57919;56.194;95.716;2023-01-27T05:30:18;98852.75;;;-1.15;47.84
70458;BME280;57919;56.194;95.716;2023-01-27T05:40:21;98866.81;;;-1.13;47.10
70458;BME280;57919;56.194;95.716;2023-01-27T05:50:22;98842.84;;;-1.11;47.46
70458;BME280;57919;56.194;95.716;2023-01-27T06:00:24;98857.47;;;-0.84;49.34
70458;BME280;57919;56.194;95.716;2023-01-27T06:10:27;98820.69;;;-1.29;47.61
70458;BME280;57919;56.194;95.716;2023-01-27T06:20:29;98846.00;;;-1.22;46.45
70458;BME280;57919;56.194;95.716;2023-01-27T06:30:31;98797.31;;;-1.40;47.09
70458;BME280;57919;56.194;95.716;2023-01-27T06:40:34;98822.69;;;-1.15;46.10
70458;BME280;57919;56.194;95.716;2023-01-27T06:50:36;98819.25;;;-1.17;46.72
70458;BME280;57919;56.194;95.716;2023-01-27T07:00:39;98820.78;;;-1.31;48.55
70458;BME280;57919;56.194;95.716;2023-01-27T07:10:41;98769.28;;;-1.64;49.37
70458;BME280;57919;56.194;95.716;2023-01-27T07:20:43;98784.56;;;-1.50;47.37
70458;BME280;57919;56.194;95.716;2023-01-27T07:30:45;98811.09;;;-1.50;47.35
70458;BME280;57919;56.194;95.716;2023-01-27T07:40:47;98793.00;;;-1.61;47.73
70458;BME280;57919;56.194;95.716;2023-01-27T07:50:49;98762.91;;;-1.79;47.49
70458;BME280;57919;56.194;95.716;2023-01-27T08:00:50;98810.50;;;-1.57;47.37
70458;BME280;57919;56.194;95.716;2023-01-27T08:10:53;98800.75;;;-1.56;48.73
70458;BME280;57919;56.194;95.716;2023-01-27T08:20:58;98814.28;;;-1.63;48.04
70458;BME280;57919;56.194;95.716;2023-01-27T08:31:09;98810.44;;;-1.55;48.20
70458;BME280;57919;56.194;95.716;2023-01-27T08:41:14;98805.19;;;-1.76;47.35
70458;BME280;57919;56.194;95.716;2023-01-27T08:51:16;98800.81;;;-1.77;47.84
70458;BME280;57919;56.194;95.716;2023-01-27T09:01:21;98779.69;;;-1.99;47.78
70458;BME280;57919;56.194;95.716;2023-01-27T09:11:23;98784.94;;;-1.97;47.85
70458;BME280;57919;56.194;95.716;2023-01-27T09:21:25;98807.59;;;-2.10;47.66
70458;BME280;57919;56.194;95.716;2023-01-27T09:31:27;98805.19;;;-1.96;48.37
70458;BME280;57919;56.194;95.716;2023-01-27T10:23:42;98829.81;;;-2.55;55.05
70458;BME280;57919;56.194;95.716;2023-01-27T10:33:55;98788.72;;;-2.64;53.38
70458;BME280;57919;56.194;95.716;2023-01-27T10:44:48;98828.09;;;-2.56;54.44
70458;BME280;57919;56.194;95.716;2023-01-27T10:54:50;98808.66;;;-2.55;54.27
70458;BME280;57919;56.194;95.716;2023-01-27T11:04:58;98817.44;;;-2.54;55.31
70458;BME280;57919;56.194;95.716;2023-01-27T11:15:21;98819.44;;;-2.59;55.47
70458;BME280;57919;56.194;95.716;2023-01-27T11:35:27;98807.47;;;-2.48;57.54
70458;BME280;57919;56.194;95.716;2023-01-27T11:45:34;98808.56;;;-2.96;59.75
70458;BME280;57919;56.194;95.716;2023-01-27T11:55:42;98838.16;;;-2.86;60.57
70458;BME280;57919;56.194;95.716;2023-01-27T12:05:51;98828.94;;;-2.98;61.30
70458;BME280;57919;56.194;95.716;2023-01-27T12:15:59;98838.66;;;-2.76;60.01
70458;BME280;57919;56.194;95.716;2023-01-27T12:26:08;98809.53;;;-2.98;58.90
70458;BME280;57919;56.194;95.716;2023-01-27T12:36:16;98842.78;;;-2.69;57.63
70458;BME280;57919;56.194;95.716;2023-01-27T12:46:25;98858.22;;;-2.58;60.07
70458;BME280;57919;56.194;95.716;2023-01-27T12:56:28;98875.22;;;-2.86;61.73
70458;BME280;57919;56.194;95.716;2023-01-27T13:06:50;98866.28;;;-2.83;61.71
70458;BME280;57919;56.194;95.716;2023-01-27T13:16:57;98876.25;;;-2.90;63.84
70458;BME280;57919;56.194;95.716;2023-01-27T13:27:03;98859.19;;;-3.05;63.19
70458;BME280;57919;56.194;95.716;2023-01-27T13:37:36;98861.97;;;-3.08;62.79
70458;BME280;57919;56.194;95.716;2023-01-27T13:47:57;98926.47;;;-2.88;61.55
70458;BME280;57919;56.194;95.716;2023-01-27T14:18:42;98928.50;;;-2.95;60.12
70458;BME280;57919;56.194;95.716;2023-01-27T14:50:12;98937.59;;;-3.26;62.63
70458;BME280;57919;56.194;95.716;2023-01-27T15:11:22;98969.97;;;-3.44;63.37
70458;BME280;57919;56.194;95.716;2023-01-27T15:32:25;98981.00;;;-4.07;72.07
70458;BME280;57919;56.194;95.716;2023-01-27T15:42:55;99028.38;;;-4.29;76.79
70458;BME280;57919;56.194;95.716;2023-01-27T15:53:21;99052.66;;;-4.75;78.63
70458;BME280;57919;56.194;95.716;2023-01-27T16:13:34;99076.91;;;-4.63;76.81
70458;BME280;57919;56.194;95.716;2023-01-27T16:23:48;99094.13;;;-4.80;72.50
70458;BME280;57919;56.194;95.716;2023-01-27T16:33:54;99102.59;;;-5.00;69.63
70458;BME280;57919;56.194;95.716;2023-01-27T16:54:22;99119.44;;;-5.06;69.01
70458;BME280;57919;56.194;95.716;2023-01-27T17:04:27;99099.41;;;-5.45;68.00
70458;BME280;57919;56.194;95.716;2023-01-27T17:14:33;99099.84;;;-5.62;68.80
70458;BME280;57919;56.194;95.716;2023-01-27T17:24:42;99134.88;;;-5.59;68.75
70458;BME280;57919;56.194;95.716;2023-01-27T17:34:48;99155.00;;;-5.55;69.43
70458;BME280;57919;56.194;95.716;2023-01-27T17:44:51;99135.72;;;-5.57;69.19
70458;BME280;57919;56.194;95.716;2023-01-27T17:54:59;99169.97;;;-5.57;70.62
70458;BME280;57919;56.194;95.716;2023-01-27T18:05:09;99162.94;;;-5.56;69.66
70458;BME280;57919;56.194;95.716;2023-01-27T18:25:38;99165.56;;;-5.56;69.68
70458;BME280;57919;56.194;95.716;2023-01-27T18:35:57;99145.69;;;-5.69;68.92
70458;BME280;57919;56.194;95.716;2023-01-27T18:45:59;99144.97;;;-5.76;69.64
70458;BME280;57919;56.194;95.716;2023-01-27T18:56:01;99185.31;;;-5.74;70.47
70458;BME280;57919;56.194;95.716;2023-01-27T19:06:11;99186.41;;;-5.84;70.51
70458;BME280;57919;56.194;95.716;2023-01-27T19:16:16;99189.84;;;-5.80;70.21
70458;BME280;57919;56.194;95.716;2023-01-27T19:26:21;99199.19;;;-5.67;69.59
70458;BME280;57919;56.194;95.716;2023-01-27T19:36:34;99196.53;;;-5.66;69.24
70458;BME280;57919;56.194;95.716;2023-01-27T19:46:41;99185.63;;;-5.88;68.66
70458;BME280;57919;56.194;95.716;2023-01-27T19:56:44;99240.50;;;-5.68;69.11
70458;BME280;57919;56.194;95.716;2023-01-27T20:06:46;99244.84;;;-5.67;68.03
70458;BME280;57919;56.194;95.716;2023-01-27T20:16:48;99260.88;;;-5.76;67.77
70458;BME280;57919;56.194;95.716;2023-01-27T20:26:50;99243.00;;;-6.00;66.92
70458;BME280;57919;56.194;95.716;2023-01-27T20:36:52;99262.38;;;-6.04;67.36
70458;BME280;57919;56.194;95.716;2023-01-27T20:46:54;99292.81;;;-5.90;67.44
70458;BME280;57919;56.194;95.716;2023-01-27T20:56:56;99290.25;;;-5.94;67.19
70458;BME280;57919;56.194;95.716;2023-01-27T21:06:58;99302.59;;;-5.96;66.91
70458;BME280;57919;56.194;95.716;2023-01-27T21:17:00;99293.91;;;-6.01;66.57
70458;BME280;57919;56.194;95.716;2023-01-27T21:27:02;99314.94;;;-5.98;66.89
70458;BME280;57919;56.194;95.716;2023-01-27T21:37:04;99293.38;;;-6.17;67.67
70458;BME280;57919;56.194;95.716;2023-01-27T21:47:08;99316.19;;;-6.17;67.39
70458;BME280;57919;56.194;95.716;2023-01-27T21:57:10;99348.50;;;-6.09;68.75
70458;BME280;57919;56.194;95.716;2023-01-27T22:07:14;99320.72;;;-6.26;68.78
70458;BME280;57919;56.194;95.716;2023-01-27T22:17:16;99365.13;;;-6.07;68.28
70458;BME280;57919;56.194;95.716;2023-01-27T22:27:19;99380.22;;;-6.17;68.03
70458;BME280;57919;56.194;95.716;2023-01-27T22:37:20;99389.16;;;-6.26;68.07
70458;BME280;57919;56.194;95.716;2023-01-27T22:47:22;99395.22;;;-6.21;68.48
70458;BME280;57919;56.194;95.716;2023-01-27T22:57:24;99406.34;;;-6.06;67.73
70458;BME280;57919;56.194;95.716;2023-01-27T23:07:30;99416.94;;;-6.09;67.51
70458;BME280;57919;56.194;95.716;2023-01-27T23:17:32;99450.38;;;-6.14;68.20
70458;BME280;57919;56.194;95.716;2023-01-27T23:27:34;99448.81;;;-6.25;68.81
70458;BME280;57919;56.194;95.716;2023-01-27T23:37:36;99425.69;;;-6.58;69.94
70458;BME280;57919;56.194;95.716;2023-01-27T23:47:38;99477.03;;;-6.34;69.12
70458;BME280;57919;56.194;95.716;2023-01-27T23:57:40;99470.88;;;-6.33;68.60
